Time;durP1;ratioP1;P1;durP2;ratioP2;P2;SDS_P1;SDS_P2;PMS_P1;PMS_P2;Temp;Humidity;BMP_temperature;BMP_pressure;BME280_temperature;BME280_humidity;BME280_pressure;Samples;Min_cycle;Max_cycle;Signal;HPM_P1;HPM_P2
2022/03/06 00:01:02;;;;;;;;;;;18.60;57.70;;;;;;5012694;28;1331;-68
2022/03/06 00:03:28;;;;;;;;;;;18.70;57.70;;;;;;5019051;28;1294;-68
2022/03/06 00:05:53;;;;;;;;;;;18.60;57.70;;;;;;5013980;28;1288;-68
2022/03/06 00:08:19;;;;;;;;;;;18.60;57.70;;;;;;5015969;28;1150;-67
2022/03/06 00:10:44;;;;;;;;;;;18.60;57.70;;;;;;5012591;28;1354;-66
2022/03/06 00:13:10;;;;;;;;;;;18.60;57.70;;;;;;5012632;28;1924;-68
2022/03/06 00:15:35;;;;;;;;;;;18.60;57.70;;;;;;5012918;28;773;-68
2022/03/06 00:18:01;;;;;;;;;;;18.60;57.80;;;;;;5013138;28;1034;-68
2022/03/06 00:20:26;;;;;;;;;;;18.60;57.80;;;;;;5012773;28;1906;-68
2022/03/06 00:22:52;;;;;;;;;;;18.60;57.80;;;;;;5028655;28;817;-68
2022/03/06 00:25:17;;;;;;;;;;;18.60;57.80;;;;;;5013143;28;812;-68
2022/03/06 00:27:42;;;;;;;;;;;18.60;57.80;;;;;;5013068;28;879;-68
2022/03/06 00:30:08;;;;;;;;;;;18.60;57.90;;;;;;5012474;28;1219;-68
2022/03/06 00:32:33;;;;;;;;;;;18.60;57.90;;;;;;5013060;28;820;-68
2022/03/06 00:34:59;;;;;;;;;;;18.60;57.90;;;;;;5028212;28;1199;-67
2022/03/06 00:37:24;;;;;;;;;;;18.60;57.90;;;;;;5028231;28;1006;-67
2022/03/06 00:39:50;;;;;;;;;;;18.50;57.90;;;;;;5012463;28;1902;-67
2022/03/06 00:42:15;;;;;;;;;;;18.50;57.90;;;;;;5012971;28;1002;-67
2022/03/06 00:44:40;;;;;;;;;;;18.50;57.90;;;;;;5012730;28;1021;-67
2022/03/06 00:47:06;;;;;;;;;;;18.50;57.90;;;;;;5013060;28;687;-67
2022/03/06 00:49:31;;;;;;;;;;;18.60;57.90;;;;;;5012776;28;1223;-67
2022/03/06 00:51:57;;;;;;;;;;;18.50;57.90;;;;;;5012811;28;1082;-67
2022/03/06 00:54:22;;;;;;;;;;;18.50;57.90;;;;;;5028013;28;782;-67
2022/03/06 00:56:48;;;;;;;;;;;18.50;57.90;;;;;;5028109;28;788;-68
2022/03/06 00:59:13;;;;;;;;;;;18.50;58.00;;;;;;5012197;28;1957;-66
2022/03/06 01:01:39;;;;;;;;;;;18.50;58.00;;;;;;5028066;28;1167;-66
2022/03/06 01:04:04;;;;;;;;;;;18.50;58.00;;;;;;5012667;28;875;-68
2022/03/06 01:06:30;;;;;;;;;;;18.50;58.00;;;;;;5016454;28;987;-67
2022/03/06 01:08:55;;;;;;;;;;;18.50;58.00;;;;;;5031408;28;1242;-69
2022/03/06 01:11:20;;;;;;;;;;;18.50;58.00;;;;;;5031618;28;1006;-69
2022/03/06 01:13:46;;;;;;;;;;;18.50;58.60;;;;;;5031286;28;838;-67
2022/03/06 01:16:11;;;;;;;;;;;18.50;58.00;;;;;;5031747;28;796;-67
2022/03/06 01:18:37;;;;;;;;;;;18.50;58.00;;;;;;5031310;28;831;-68
2022/03/06 01:21:02;;;;;;;;;;;18.50;58.10;;;;;;5015920;28;1267;-68
2022/03/06 01:23:28;;;;;;;;;;;18.50;58.10;;;;;;5031530;28;900;-68
2022/03/06 01:25:54;;;;;;;;;;;18.50;58.10;;;;;;5015988;28;890;-68
2022/03/06 01:28:19;;;;;;;;;;;18.50;58.10;;;;;;5015830;28;1011;-68
2022/03/06 01:30:44;;;;;;;;;;;18.50;58.10;;;;;;5015860;28;1282;-67
2022/03/06 01:33:10;;;;;;;;;;;18.50;58.00;;;;;;5015882;28;884;-68
2022/03/06 01:35:35;;;;;;;;;;;18.50;58.00;;;;;;5015690;28;1144;-67
2022/03/06 01:38:01;;;;;;;;;;;18.50;58.00;;;;;;5015820;28;884;-68
2022/03/06 01:40:26;;;;;;;;;;;18.50;58.00;;;;;;5015197;28;1952;-68
2022/03/06 01:42:52;;;;;;;;;;;18.50;58.00;;;;;;5015654;28;843;-68
2022/03/06 01:45:19;;;;;;;;;;;18.50;58.00;;;;;;5015658;28;782;-67
2022/03/06 01:47:45;;;;;;;;;;;18.50;58.00;;;;;;5030973;28;868;-68
2022/03/06 01:50:14;;;;;;;;;;;18.50;57.90;;;;;;5015358;28;1283;-68
2022/03/06 01:52:39;;;;;;;;;;;18.50;57.90;;;;;;5015622;28;940;-68
2022/03/06 01:55:05;;;;;;;;;;;18.50;57.90;;;;;;5015962;28;959;-68
2022/03/06 01:57:30;;;;;;;;;;;18.50;57.90;;;;;;5030663;28;898;-67
2022/03/06 01:59:56;;;;;;;;;;;18.50;57.90;;;;;;5030149;28;1919;-67
2022/03/06 02:02:21;;;;;;;;;;;18.50;57.90;;;;;;5030895;28;1174;-67
2022/03/06 02:04:47;;;;;;;;;;;18.50;57.90;;;;;;5015209;28;1057;-67
2022/03/06 02:07:12;;;;;;;;;;;18.50;57.90;;;;;;5015386;28;871;-66
2022/03/06 02:09:37;;;;;;;;;;;18.50;57.90;;;;;;5014822;28;1351;-67
2022/03/06 02:15:05;;;;;;;;;;;18.50;57.90;;;;;;4973810;28;1245;-67
2022/03/06 02:17:30;;;;;;;;;;;18.50;57.90;;;;;;5006095;28;1082;-67
2022/03/06 02:19:57;;;;;;;;;;;18.50;57.90;;;;;;5014592;28;1894;-67
2022/03/06 02:22:23;;;;;;;;;;;18.50;57.90;;;;;;5030329;28;887;-67
2022/03/06 02:24:48;;;;;;;;;;;18.50;57.90;;;;;;5014837;28;1101;-67
2022/03/06 02:27:14;;;;;;;;;;;18.50;57.90;;;;;;5014803;28;875;-67
2022/03/06 02:29:42;;;;;;;;;;;18.50;57.90;;;;;;5014428;28;1313;-67
2022/03/06 02:32:08;;;;;;;;;;;18.50;57.90;;;;;;5030272;28;800;-67
2022/03/06 02:34:33;;;;;;;;;;;18.50;57.90;;;;;;5029839;28;1147;-67
2022/03/06 02:36:59;;;;;;;;;;;18.50;57.90;;;;;;5030021;28;894;-67
2022/03/06 02:39:25;;;;;;;;;;;18.50;57.90;;;;;;5029385;28;1902;-67
2022/03/06 02:41:50;;;;;;;;;;;18.50;57.90;;;;;;5014702;28;1006;-68
2022/03/06 02:44:15;;;;;;;;;;;18.50;57.90;;;;;;5014565;28;887;-68
2022/03/06 02:46:44;;;;;;;;;;;18.50;58.50;;;;;;5014950;28;938;-68
2022/03/06 02:49:09;;;;;;;;;;;18.50;57.90;;;;;;5014061;28;1214;-68
2022/03/06 02:51:35;;;;;;;;;;;18.50;57.90;;;;;;5014945;28;820;-68
2022/03/06 02:54:00;;;;;;;;;;;18.50;57.90;;;;;;5014448;28;891;-67
2022/03/06 02:56:28;;;;;;;;;;;18.50;57.80;;;;;;5014339;28;946;-67
2022/03/06 02:58:53;;;;;;;;;;;18.50;57.80;;;;;;5013952;28;1923;-68
2022/03/06 03:01:19;;;;;;;;;;;18.50;57.70;;;;;;5014271;28;1131;-67
2022/03/06 03:03:44;;;;;;;;;;;18.60;57.70;;;;;;5014245;28;857;-68
2022/03/06 03:06:10;;;;;;;;;;;18.60;57.60;;;;;;5014036;28;810;-68
2022/03/06 03:08:35;;;;;;;;;;;18.60;57.50;;;;;;5013913;28;966;-67
2022/03/06 03:11:00;;;;;;;;;;;18.70;57.50;;;;;;5013900;28;1194;-67
2022/03/06 03:13:26;;;;;;;;;;;18.70;57.40;;;;;;5012933;28;963;-68
2022/03/06 03:15:53;;;;;;;;;;;18.70;57.40;;;;;;5013998;28;797;-68
2022/03/06 03:18:18;;;;;;;;;;;18.70;57.30;;;;;;5014059;28;843;-68
2022/03/06 03:20:44;;;;;;;;;;;18.70;57.20;;;;;;5013303;28;1968;-68
2022/03/06 03:23:09;;;;;;;;;;;18.80;57.20;;;;;;5014530;28;781;-68
2022/03/06 03:25:34;;;;;;;;;;;18.80;57.20;;;;;;5013711;28;962;-68
2022/03/06 03:28:00;;;;;;;;;;;18.80;57.10;;;;;;5013841;28;840;-68
2022/03/06 03:30:25;;;;;;;;;;;18.80;57.10;;;;;;5013007;28;1281;-67
2022/03/06 03:32:51;;;;;;;;;;;18.80;57.10;;;;;;5013334;28;1157;-68
2022/03/06 03:35:16;;;;;;;;;;;18.80;57.10;;;;;;5013071;28;1291;-68
2022/03/06 03:37:42;;;;;;;;;;;18.80;57.00;;;;;;5013261;28;1322;-68
2022/03/06 03:40:07;;;;;;;;;;;18.80;57.00;;;;;;5032792;22;3694;-68
2022/03/06 03:42:33;;;;;;;;;;;18.80;57.00;;;;;;4999392;28;1347;-68
2022/03/06 03:44:58;;;;;;;;;;;18.80;57.00;;;;;;5032877;28;1267;-67
2022/03/06 03:47:24;;;;;;;;;;;18.80;57.00;;;;;;5015346;28;1299;-68
2022/03/06 03:49:50;;;;;;;;;;;18.80;57.00;;;;;;5032477;28;1361;-69
2022/03/06 03:52:15;;;;;;;;;;;18.80;57.00;;;;;;5032719;28;1208;-67
2022/03/06 03:54:41;;;;;;;;;;;18.80;57.00;;;;;;5015300;28;1324;-67
2022/03/06 03:57:06;;;;;;;;;;;18.90;57.00;;;;;;5033209;28;907;-67
2022/03/06 03:59:32;;;;;;;;;;;18.90;57.00;;;;;;5015217;28;1911;-68
2022/03/06 04:01:57;;;;;;;;;;;18.90;57.00;;;;;;5033155;28;1397;-67
2022/03/06 04:04:23;;;;;;;;;;;18.80;56.90;;;;;;5033283;28;823;-67
2022/03/06 04:06:48;;;;;;;;;;;18.90;57.00;;;;;;5015400;28;919;-68
2022/03/06 04:09:13;;;;;;;;;;;18.90;57.00;;;;;;5032970;28;795;-67
2022/03/06 04:11:39;;;;;;;;;;;18.90;56.90;;;;;;5015204;28;1276;-68
2022/03/06 04:14:04;;;;;;;;;;;18.90;56.80;;;;;;5033164;28;882;-68
2022/03/06 04:16:30;;;;;;;;;;;18.90;56.80;;;;;;5032908;28;923;-68
2022/03/06 04:18:55;;;;;;;;;;;18.90;56.80;;;;;;5032751;28;1949;-68
2022/03/06 04:21:21;;;;;;;;;;;18.90;56.70;;;;;;5032834;28;1188;-68
2022/03/06 04:23:46;;;;;;;;;;;19.00;56.70;;;;;;5032940;28;873;-68
2022/03/06 04:26:11;;;;;;;;;;;19.00;56.60;;;;;;5033110;28;717;-68
2022/03/06 04:28:37;;;;;;;;;;;19.00;56.60;;;;;;5033040;28;713;-68
2022/03/06 04:31:02;;;;;;;;;;;19.00;56.60;;;;;;5032665;28;1213;-68
2022/03/06 04:33:28;;;;;;;;;;;19.00;56.50;;;;;;5015464;28;1180;-68
2022/03/06 04:35:53;;;;;;;;;;;19.00;56.50;;;;;;5032441;28;1120;-68
2022/03/06 04:38:19;;;;;;;;;;;19.00;56.50;;;;;;5014784;28;706;-68
2022/03/06 04:40:46;;;;;;;;;;;19.00;56.50;;;;;;5034698;28;1902;-68
2022/03/06 04:43:12;;;;;;;;;;;19.00;56.50;;;;;;5036186;28;812;-67
2022/03/06 04:45:37;;;;;;;;;;;19.00;56.40;;;;;;5035933;28;832;-68
2022/03/06 04:48:03;;;;;;;;;;;19.10;56.50;;;;;;5036077;28;855;-68
2022/03/06 04:50:28;;;;;;;;;;;19.10;56.50;;;;;;5035409;28;1229;-67
2022/03/06 04:52:53;;;;;;;;;;;19.10;56.50;;;;;;5036012;28;1104;-68
2022/03/06 04:55:19;;;;;;;;;;;19.10;56.40;;;;;;5018368;28;1065;-67
2022/03/06 04:57:47;;;;;;;;;;;19.10;56.40;;;;;;5036221;28;654;-68
2022/03/06 05:00:14;;;;;;;;;;;19.10;56.40;;;;;;5035625;28;2029;-67
2022/03/06 05:02:39;;;;;;;;;;;19.10;56.40;;;;;;5018332;28;1120;-68
2022/03/06 05:05:05;;;;;;;;;;;19.10;56.40;;;;;;5035350;28;1005;-67
2022/03/06 05:07:30;;;;;;;;;;;19.10;56.40;;;;;;5035822;28;1081;-67
2022/03/06 05:09:56;;;;;;;;;;;19.10;56.40;;;;;;5035068;28;1162;-67
2022/03/06 05:12:21;;;;;;;;;;;19.10;56.40;;;;;;5035646;28;807;-67
2022/03/06 05:14:46;;;;;;;;;;;19.10;56.40;;;;;;5035333;28;844;-68
2022/03/06 05:17:12;;;;;;;;;;;19.10;56.40;;;;;;5017868;28;943;-67
2022/03/06 05:19:38;;;;;;;;;;;19.10;56.40;;;;;;5017494;28;1890;-68
2022/03/06 05:22:03;;;;;;;;;;;19.10;56.40;;;;;;5035632;28;612;-68
2022/03/06 05:24:29;;;;;;;;;;;19.10;56.40;;;;;;5035669;28;938;-67
2022/03/06 05:26:54;;;;;;;;;;;19.10;56.50;;;;;;5017382;28;896;-68
2022/03/06 05:29:19;;;;;;;;;;;19.00;56.40;;;;;;5034806;28;1164;-68
2022/03/06 05:31:45;;;;;;;;;;;19.00;56.40;;;;;;5035063;28;872;-68
2022/03/06 05:34:10;;;;;;;;;;;19.00;56.40;;;;;;5035389;28;1249;-68
2022/03/06 05:36:36;;;;;;;;;;;19.00;56.40;;;;;;5035576;28;1241;-68
2022/03/06 05:39:01;;;;;;;;;;;19.00;56.50;;;;;;5035496;28;1953;-68
2022/03/06 05:41:27;;;;;;;;;;;19.00;56.50;;;;;;5035479;28;1175;-68
2022/03/06 05:43:52;;;;;;;;;;;19.00;56.50;;;;;;5035614;28;935;-68
2022/03/06 05:46:18;;;;;;;;;;;19.00;56.50;;;;;;5035577;28;866;-68
2022/03/06 05:48:43;;;;;;;;;;;19.00;56.50;;;;;;5035210;28;918;-67
2022/03/06 05:51:09;;;;;;;;;;;19.00;56.50;;;;;;5034119;28;1210;-68
2022/03/06 05:53:34;;;;;;;;;;;19.00;56.50;;;;;;5035524;28;835;-68
2022/03/06 05:56:00;;;;;;;;;;;19.00;56.50;;;;;;5035313;28;788;-68
2022/03/06 05:58:25;;;;;;;;;;;19.00;56.50;;;;;;5035477;28;882;-68
2022/03/06 06:00:51;;;;;;;;;;;19.00;56.50;;;;;;5035097;28;1910;-68
2022/03/06 06:03:16;;;;;;;;;;;19.00;56.60;;;;;;5035064;28;1167;-68
2022/03/06 06:05:42;;;;;;;;;;;19.00;56.50;;;;;;5017484;28;856;-68
2022/03/06 06:08:07;;;;;;;;;;;19.00;56.60;;;;;;5017520;28;867;-68
2022/03/06 06:10:32;;;;;;;;;;;19.00;56.50;;;;;;5035011;28;1350;-68
2022/03/06 06:12:58;;;;;;;;;;;19.00;56.50;;;;;;5035065;28;789;-68
2022/03/06 06:15:23;;;;;;;;;;;19.00;56.50;;;;;;5017289;28;943;-68
2022/03/06 06:17:49;;;;;;;;;;;19.00;56.50;;;;;;5034945;28;927;-67
2022/03/06 06:20:14;;;;;;;;;;;19.00;56.60;;;;;;5034405;28;1894;-68
2022/03/06 06:22:40;;;;;;;;;;;19.00;56.60;;;;;;5034972;28;848;-68
2022/03/06 06:25:05;;;;;;;;;;;19.00;56.60;;;;;;5034814;28;772;-68
2022/03/06 06:27:30;;;;;;;;;;;19.00;56.60;;;;;;5034869;28;838;-68
2022/03/06 06:29:56;;;;;;;;;;;19.00;56.60;;;;;;5016655;28;1193;-68
2022/03/06 06:32:21;;;;;;;;;;;19.00;56.60;;;;;;5034737;28;1005;-67
2022/03/06 06:34:47;;;;;;;;;;;19.00;56.60;;;;;;5034394;28;1230;-68
2022/03/06 06:37:12;;;;;;;;;;;19.00;56.60;;;;;;5034663;28;694;-68
2022/03/06 06:39:38;;;;;;;;;;;19.00;56.60;;;;;;5016420;28;1902;-68
2022/03/06 06:42:04;;;;;;;;;;;19.00;56.60;;;;;;5016863;28;1014;-68
2022/03/06 06:44:29;;;;;;;;;;;19.00;56.60;;;;;;5016823;28;816;-68
2022/03/06 06:46:55;;;;;;;;;;;18.90;56.60;;;;;;5016826;28;1065;-68
2022/03/06 06:49:20;;;;;;;;;;;19.00;56.60;;;;;;5016303;28;1172;-68
2022/03/06 06:51:46;;;;;;;;;;;18.90;56.60;;;;;;5034411;28;1046;-68
2022/03/06 06:54:13;;;;;;;;;;;18.90;56.60;;;;;;5034267;28;1073;-68
2022/03/06 06:56:39;;;;;;;;;;;19.00;56.60;;;;;;5034191;28;819;-68
2022/03/06 06:59:04;;;;;;;;;;;18.90;56.60;;;;;;5033956;28;1914;-68
2022/03/06 07:01:30;;;;;;;;;;;19.00;56.60;;;;;;5016345;28;1287;-68
2022/03/06 07:03:55;;;;;;;;;;;19.00;56.70;;;;;;5033623;28;843;-67
2022/03/06 07:06:21;;;;;;;;;;;19.00;56.70;;;;;;5029221;28;1769;-68
2022/03/06 07:08:46;;;;;;;;;;;18.90;56.60;;;;;;5029831;28;1829;-69
2022/03/06 07:11:12;;;;;;;;;;;18.90;56.60;;;;;;5033610;28;1704;-67
2022/03/06 07:13:37;;;;;;;;;;;18.90;56.70;;;;;;5016099;28;1580;-66
2022/03/06 07:16:03;;;;;;;;;;;18.90;56.60;;;;;;5033156;28;2163;-67
2022/03/06 07:18:28;;;;;;;;;;;18.90;56.60;;;;;;5033354;28;1172;-67
2022/03/06 07:20:54;;;;;;;;;;;18.90;56.60;;;;;;5033459;28;1898;-67
2022/03/06 07:23:19;;;;;;;;;;;18.90;56.60;;;;;;5033516;28;1210;-67
2022/03/06 07:25:44;;;;;;;;;;;18.90;56.60;;;;;;5015916;28;1213;-67
2022/03/06 07:28:10;;;;;;;;;;;19.00;56.70;;;;;;5033195;28;2007;-67
2022/03/06 07:30:35;;;;;;;;;;;18.90;56.70;;;;;;5014853;28;1344;-67
2022/03/06 07:33:01;;;;;;;;;;;18.90;56.70;;;;;;5033133;28;1111;-71
2022/03/06 07:35:26;;;;;;;;;;;18.90;56.60;;;;;;5015917;28;1348;-69
2022/03/06 07:37:52;;;;;;;;;;;18.90;56.60;;;;;;5032740;28;2308;-68
2022/03/06 07:40:17;;;;;;;;;;;18.90;56.70;;;;;;5014921;28;1965;-68
2022/03/06 07:42:44;;;;;;;;;;;18.90;56.70;;;;;;5015774;28;1195;-69
2022/03/06 07:45:10;;;;;;;;;;;18.90;56.70;;;;;;5015747;28;879;-69
2022/03/06 07:47:35;;;;;;;;;;;18.90;56.60;;;;;;4998972;28;1271;-70
2022/03/06 07:50:00;;;;;;;;;;;18.90;56.60;;;;;;5032593;28;1249;-70
2022/03/06 07:52:26;;;;;;;;;;;19.00;56.70;;;;;;5015557;28;858;-71
2022/03/06 07:54:51;;;;;;;;;;;19.00;56.60;;;;;;5015403;28;797;-68
2022/03/06 07:57:17;;;;;;;;;;;19.00;56.60;;;;;;5014962;28;923;-68
2022/03/06 07:59:42;;;;;;;;;;;19.00;56.50;;;;;;5013367;28;2021;-67
2022/03/06 08:02:08;;;;;;;;;;;19.00;56.50;;;;;;4998162;28;1655;-68
2022/03/06 08:04:33;;;;;;;;;;;19.00;56.40;;;;;;5032356;28;1742;-68
2022/03/06 08:06:58;;;;;;;;;;;19.10;56.40;;;;;;5033159;28;1072;-68
2022/03/06 08:09:24;;;;;;;;;;;19.10;56.40;;;;;;5032507;28;1346;-68
2022/03/06 08:11:50;;;;;;;;;;;19.10;56.40;;;;;;5015321;28;1095;-68
2022/03/06 08:14:15;;;;;;;;;;;19.10;56.40;;;;;;5014667;28;828;-68
2022/03/06 08:16:41;;;;;;;;;;;19.10;56.30;;;;;;5032739;28;796;-68
2022/03/06 08:19:06;;;;;;;;;;;19.10;56.30;;;;;;5032728;28;1898;-68
2022/03/06 08:21:32;;;;;;;;;;;19.10;56.30;;;;;;5033253;28;1181;-68
2022/03/06 08:23:57;;;;;;;;;;;19.10;56.20;;;;;;5033085;28;860;-68
2022/03/06 08:26:25;;;;;;;;;;;19.20;56.20;;;;;;5032774;28;667;-68
2022/03/06 08:28:51;;;;;;;;;;;19.30;56.00;;;;;;5014348;28;2052;-67
2022/03/06 08:31:16;;;;;;;;;;;19.50;55.90;;;;;;5014786;28;1360;-68
2022/03/06 08:33:42;;;;;;;;;;;19.60;55.70;;;;;;5032663;28;1049;-68
2022/03/06 08:36:07;;;;;;;;;;;19.70;55.50;;;;;;5032633;28;1164;-68
2022/03/06 08:38:33;;;;;;;;;;;19.80;55.20;;;;;;5032445;28;1300;-68
2022/03/06 08:40:58;;;;;;;;;;;20.00;55.00;;;;;;5032393;28;1906;-68
2022/03/06 08:43:24;;;;;;;;;;;20.10;54.70;;;;;;5015145;28;892;-68
2022/03/06 08:45:49;;;;;;;;;;;20.20;54.40;;;;;;5032498;28;895;-69
2022/03/06 08:48:15;;;;;;;;;;;20.30;54.20;;;;;;5032830;28;879;-68
2022/03/06 08:50:40;;;;;;;;;;;20.40;54.00;;;;;;5032422;28;1275;-68
2022/03/06 08:53:06;;;;;;;;;;;20.50;53.80;;;;;;5015181;28;942;-69
2022/03/06 08:55:32;;;;;;;;;;;20.50;53.50;;;;;;5032563;28;855;-68
2022/03/06 08:57:57;;;;;;;;;;;20.60;53.40;;;;;;5033014;28;782;-68
2022/03/06 09:00:23;;;;;;;;;;;20.60;53.30;;;;;;5014661;28;1969;-69
2022/03/06 09:02:48;;;;;;;;;;;20.70;53.20;;;;;;5032570;28;1210;-68
2022/03/06 09:05:14;;;;;;;;;;;20.70;53.10;;;;;;5014873;28;898;-68
2022/03/06 09:07:39;;;;;;;;;;;20.70;53.10;;;;;;5014955;28;899;-68
2022/03/06 09:10:05;;;;;;;;;;;20.80;53.10;;;;;;5032034;28;1213;-68
2022/03/06 09:12:30;;;;;;;;;;;20.80;53.20;;;;;;5032793;28;827;-68
2022/03/06 09:14:56;;;;;;;;;;;20.80;53.20;;;;;;5032389;28;890;-68
2022/03/06 09:17:21;;;;;;;;;;;20.80;53.20;;;;;;5015186;28;763;-68
2022/03/06 09:19:47;;;;;;;;;;;20.80;53.20;;;;;;5014471;28;1898;-68
2022/03/06 09:22:12;;;;;;;;;;;20.80;53.30;;;;;;5014724;28;906;-68
2022/03/06 09:24:37;;;;;;;;;;;20.80;53.30;;;;;;5032361;28;915;-69
2022/03/06 09:27:03;;;;;;;;;;;20.80;53.20;;;;;;5035352;28;871;-69
2022/03/06 09:29:29;;;;;;;;;;;20.80;53.20;;;;;;5035607;28;1274;-68
2022/03/06 09:31:54;;;;;;;;;;;20.80;53.20;;;;;;5018023;28;986;-69
2022/03/06 09:34:19;;;;;;;;;;;20.70;53.10;;;;;;5035736;28;1187;-69
2022/03/06 09:36:45;;;;;;;;;;;20.70;53.30;;;;;;5035796;28;903;-68
2022/03/06 09:39:13;;;;;;;;;;;20.70;53.20;;;;;;5017921;28;1898;-68
2022/03/06 09:41:38;;;;;;;;;;;20.70;53.30;;;;;;5036126;28;1292;-69
2022/03/06 09:44:05;;;;;;;;;;;20.70;53.30;;;;;;5035609;28;815;-69
2022/03/06 09:46:30;;;;;;;;;;;20.60;53.30;;;;;;5035866;28;977;-69
2022/03/06 09:48:56;;;;;;;;;;;20.60;53.40;;;;;;5017420;28;1172;-69
2022/03/06 09:51:21;;;;;;;;;;;20.60;53.40;;;;;;5017679;28;1257;-69
2022/03/06 09:53:47;;;;;;;;;;;20.60;53.50;;;;;;5017673;28;895;-69
2022/03/06 09:56:12;;;;;;;;;;;20.50;53.50;;;;;;5017430;28;1038;-69
2022/03/06 09:58:37;;;;;;;;;;;20.50;53.60;;;;;;5034994;28;928;-69
2022/03/06 10:01:03;;;;;;;;;;;20.50;53.70;;;;;;5034773;28;1910;-69
2022/03/06 10:03:32;;;;;;;;;;;20.50;53.70;;;;;;5017586;28;793;-69
2022/03/06 10:05:57;;;;;;;;;;;20.50;53.80;;;;;;5017334;28;1438;-70
2022/03/06 10:08:28;;;;;;;;;;;20.50;53.80;;;;;;5030930;28;1518;-70
2022/03/06 10:11:01;;;;;;;;;;;20.40;53.80;;;;;;5034817;28;1252;-69
2022/03/06 10:13:31;;;;;;;;;;;20.50;53.90;;;;;;5017274;28;848;-69
2022/03/06 10:16:03;;;;;;;;;;;20.40;53.90;;;;;;5034949;28;823;-69
2022/03/06 10:18:30;;;;;;;;;;;20.40;54.00;;;;;;5017135;28;919;-69
2022/03/06 10:21:00;;;;;;;;;;;20.40;54.10;;;;;;5017089;28;1906;-69
2022/03/06 10:23:25;;;;;;;;;;;20.30;54.00;;;;;;5017408;28;1005;-69
2022/03/06 10:26:23;;;;;;;;;;;20.30;54.10;;;;;;5016909;28;848;-69
2022/03/06 10:28:53;;;;;;;;;;;20.30;54.20;;;;;;4994789;28;1408;-70
2022/03/06 10:31:18;;;;;;;;;;;20.30;54.20;;;;;;5034691;28;1169;-70
2022/03/06 10:34:04;;;;;;;;;;;20.30;54.30;;;;;;5017017;28;1192;-69
2022/03/06 10:36:42;;;;;;;;;;;20.20;54.30;;;;;;5033958;28;1208;-70
2022/03/06 10:39:09;;;;;;;;;;;20.20;54.30;;;;;;5033945;28;1898;-69
2022/03/06 10:41:35;;;;;;;;;;;20.20;54.30;;;;;;5016677;28;1194;-70
2022/03/06 10:44:01;;;;;;;;;;;20.20;54.40;;;;;;5017614;28;845;-70
2022/03/06 10:46:26;;;;;;;;;;;20.20;54.40;;;;;;5016733;28;1372;-69
2022/03/06 10:48:55;;;;;;;;;;;20.20;54.50;;;;;;5033950;28;1016;-69
2022/03/06 10:51:21;;;;;;;;;;;20.20;54.50;;;;;;5034279;28;1204;-70
2022/03/06 10:53:53;;;;;;;;;;;20.10;54.60;;;;;;5034292;28;830;-70
2022/03/06 10:56:18;;;;;;;;;;;20.10;54.60;;;;;;5016689;28;800;-69
2022/03/06 10:58:44;;;;;;;;;;;20.10;54.60;;;;;;5016188;28;757;-69
2022/03/06 11:01:10;;;;;;;;;;;20.10;54.70;;;;;;5033908;28;1910;-69
2022/03/06 11:03:36;;;;;;;;;;;20.10;54.70;;;;;;5016387;28;836;-69
2022/03/06 11:06:02;;;;;;;;;;;20.10;54.80;;;;;;5016522;28;843;-69
2022/03/06 11:08:27;;;;;;;;;;;20.10;54.80;;;;;;5034388;28;796;-69
2022/03/06 11:10:52;;;;;;;;;;;20.10;54.80;;;;;;5034303;28;1189;-69
2022/03/06 11:13:18;;;;;;;;;;;20.10;54.80;;;;;;5016493;28;907;-69
2022/03/06 11:15:43;;;;;;;;;;;20.10;54.70;;;;;;5016166;28;907;-69
2022/03/06 11:18:09;;;;;;;;;;;20.10;54.80;;;;;;5033882;28;828;-69
2022/03/06 11:20:34;;;;;;;;;;;20.10;54.70;;;;;;5015819;28;1902;-69
2022/03/06 11:23:00;;;;;;;;;;;20.10;54.70;;;;;;5033772;28;910;-69
2022/03/06 11:25:27;;;;;;;;;;;20.10;54.70;;;;;;5033842;28;800;-70
2022/03/06 11:27:55;;;;;;;;;;;20.20;54.70;;;;;;5016029;28;772;-69
2022/03/06 11:30:20;;;;;;;;;;;20.20;54.60;;;;;;5033296;28;1197;-70
2022/03/06 11:32:47;;;;;;;;;;;20.20;54.60;;;;;;5015907;28;1116;-69
2022/03/06 11:35:15;;;;;;;;;;;20.20;54.60;;;;;;5033543;28;1203;-69
2022/03/06 11:37:59;;;;;;;;;;;20.20;54.60;;;;;;5015986;28;875;-69
2022/03/06 11:40:37;;;;;;;;;;;20.20;54.60;;;;;;5033066;28;1914;-69
2022/03/06 11:43:03;;;;;;;;;;;20.10;54.60;;;;;;5033294;28;843;-69
2022/03/06 11:45:48;;;;;;;;;;;20.10;54.60;;;;;;5015828;28;1042;-70
2022/03/06 11:48:27;;;;;;;;;;;20.10;54.60;;;;;;5015767;28;811;-69
2022/03/06 11:51:15;;;;;;;;;;;20.10;54.60;;;;;;5033237;28;1208;-69
2022/03/06 11:53:46;;;;;;;;;;;20.10;54.70;;;;;;5015801;28;784;-69
2022/03/06 11:56:30;;;;;;;;;;;20.10;54.70;;;;;;5033291;28;816;-69
2022/03/06 11:58:55;;;;;;;;;;;20.10;54.70;;;;;;5032914;28;994;-70
2022/03/06 12:01:25;;;;;;;;;;;20.10;54.70;;;;;;5015331;28;1977;-69
2022/03/06 12:03:50;;;;;;;;;;;20.10;54.80;;;;;;5015398;28;1147;-70
2022/03/06 12:06:15;;;;;;;;;;;20.10;54.80;;;;;;5015335;28;1602;-69
2022/03/06 12:08:41;;;;;;;;;;;20.00;54.80;;;;;;5015091;28;1246;-69
2022/03/06 12:11:06;;;;;;;;;;;20.10;54.90;;;;;;5015309;28;1228;-70
2022/03/06 12:13:32;;;;;;;;;;;20.00;54.80;;;;;;5015537;28;816;-69
2022/03/06 12:16:04;;;;;;;;;;;20.00;54.80;;;;;;5015397;28;873;-69
2022/03/06 12:18:30;;;;;;;;;;;20.00;54.90;;;;;;5014008;28;2312;-69
2022/03/06 12:20:55;;;;;;;;;;;20.00;54.90;;;;;;5032499;28;1898;-68
2022/03/06 12:23:24;;;;;;;;;;;20.00;54.90;;;;;;5032778;28;1284;-69
2022/03/06 12:25:54;;;;;;;;;;;20.00;55.00;;;;;;5015243;28;1120;-69
2022/03/06 12:28:19;;;;;;;;;;;20.00;55.00;;;;;;5032882;28;1073;-68
2022/03/06 12:30:45;;;;;;;;;;;20.00;55.00;;;;;;5032294;28;1355;-68
2022/03/06 12:33:29;;;;;;;;;;;20.00;55.00;;;;;;5015148;28;1139;-68
2022/03/06 12:36:07;;;;;;;;;;;20.00;54.90;;;;;;5032883;28;1116;-68
2022/03/06 12:38:33;;;;;;;;;;;20.00;54.90;;;;;;5032530;28;1065;-69
2022/03/06 12:40:58;;;;;;;;;;;20.10;54.90;;;;;;5032446;28;1951;-68
2022/03/06 12:43:24;;;;;;;;;;;20.10;54.80;;;;;;5014890;28;1258;-68
2022/03/06 12:45:50;;;;;;;;;;;20.20;54.70;;;;;;5015018;28;826;-68
2022/03/06 12:48:16;;;;;;;;;;;20.20;54.60;;;;;;5032767;28;816;-68
2022/03/06 12:50:41;;;;;;;;;;;20.20;54.50;;;;;;4998531;28;1224;-69
2022/03/06 12:53:07;;;;;;;;;;;20.30;54.80;;;;;;5014983;28;1437;-69
2022/03/06 12:55:32;;;;;;;;;;;20.20;54.30;;;;;;5032676;28;781;-69
2022/03/06 12:57:59;;;;;;;;;;;20.30;54.30;;;;;;5014045;28;2256;-69
2022/03/06 13:00:27;;;;;;;;;;;20.30;54.30;;;;;;5014002;28;1914;-69
2022/03/06 13:02:53;;;;;;;;;;;20.30;54.30;;;;;;5017191;28;1316;-68
2022/03/06 13:05:25;;;;;;;;;;;20.30;54.30;;;;;;5035579;28;903;-68
2022/03/06 13:07:51;;;;;;;;;;;20.30;54.30;;;;;;5035523;28;2181;-69
2022/03/06 13:10:18;;;;;;;;;;;20.30;54.30;;;;;;5018034;28;1363;-68
2022/03/06 13:12:47;;;;;;;;;;;20.30;54.30;;;;;;5035523;28;1889;-68
2022/03/06 13:15:13;;;;;;;;;;;20.30;54.30;;;;;;5036032;28;1206;-68
2022/03/06 13:17:39;;;;;;;;;;;20.30;54.30;;;;;;5036137;28;1121;-68
2022/03/06 13:20:04;;;;;;;;;;;20.30;54.30;;;;;;5035807;28;1899;-69
2022/03/06 13:22:31;;;;;;;;;;;20.30;54.30;;;;;;5018288;28;1211;-68
2022/03/06 13:24:57;;;;;;;;;;;20.30;54.40;;;;;;5035980;28;847;-68
2022/03/06 13:27:23;;;;;;;;;;;20.20;54.40;;;;;;5035919;28;792;-69
2022/03/06 13:30:05;;;;;;;;;;;20.20;54.40;;;;;;5035737;28;1231;-69
2022/03/06 13:32:31;;;;;;;;;;;20.20;54.40;;;;;;5035965;28;780;-68
2022/03/06 13:34:56;;;;;;;;;;;20.20;54.40;;;;;;5036201;28;1199;-69
2022/03/06 13:37:38;;;;;;;;;;;20.20;54.40;;;;;;5017940;28;808;-68
2022/03/06 13:40:08;;;;;;;;;;;20.20;54.40;;;;;;5016911;28;1902;-69
2022/03/06 13:42:34;;;;;;;;;;;20.20;54.40;;;;;;5017967;28;1211;-69
2022/03/06 13:44:59;;;;;;;;;;;20.20;54.50;;;;;;5017930;28;1095;-69
2022/03/06 13:47:25;;;;;;;;;;;20.20;54.50;;;;;;5014064;28;1598;-69
2022/03/06 13:50:00;;;;;;;;;;;20.20;54.50;;;;;;5032515;28;1739;-68
2022/03/06 13:52:35;;;;;;;;;;;20.20;54.60;;;;;;5035406;28;1244;-69
2022/03/06 13:55:05;;;;;;;;;;;20.20;54.60;;;;;;5017923;28;1256;-69
2022/03/06 13:57:30;;;;;;;;;;;20.10;54.60;;;;;;5018121;28;1062;-68
2022/03/06 13:59:56;;;;;;;;;;;20.20;54.70;;;;;;5034923;28;1894;-69
2022/03/06 14:02:22;;;;;;;;;;;20.10;54.60;;;;;;5035506;28;1151;-69
2022/03/06 14:04:48;;;;;;;;;;;20.10;54.70;;;;;;5017406;28;1030;-69
2022/03/06 14:07:14;;;;;;;;;;;20.10;54.70;;;;;;5017507;28;1212;-68
2022/03/06 14:09:45;;;;;;;;;;;20.10;54.80;;;;;;5034975;28;1208;-69
2022/03/06 14:12:11;;;;;;;;;;;20.10;54.80;;;;;;5016307;28;785;-69
2022/03/06 14:14:37;;;;;;;;;;;20.10;54.90;;;;;;5017516;28;809;-69
2022/03/06 14:17:04;;;;;;;;;;;20.10;54.80;;;;;;5017194;28;1057;-69
2022/03/06 14:19:29;;;;;;;;;;;20.10;54.90;;;;;;5016785;28;1957;-69
2022/03/06 14:21:54;;;;;;;;;;;20.00;54.80;;;;;;5017099;28;859;-69
2022/03/06 14:24:20;;;;;;;;;;;20.00;54.90;;;;;;5017292;28;883;-69
2022/03/06 14:26:46;;;;;;;;;;;20.00;54.90;;;;;;5034765;28;883;-69
2022/03/06 14:29:15;;;;;;;;;;;20.00;55.00;;;;;;5034514;28;811;-69
2022/03/06 14:31:42;;;;;;;;;;;20.00;54.90;;;;;;5035080;28;1318;-69
2022/03/06 14:34:08;;;;;;;;;;;20.00;55.00;;;;;;5034510;28;1304;-68